X  Schlie├čen METAR Luftfahrt Wetterdaten     EDDK Cologne Bonn Airport
Temperatur
7°C Temperatur
3°C Taupunkt
76% Feuchtigkeit



Wind
6 MPS
10 KM/S
3 M/S
5 KTS



340°
NNW
Aktuelle Wetterlage

Klar Klar
Luftdruck 1024.92 (hPa) - 30.27 (inHg)
Sichtweite 6.2 (Meile) - 10 (Km)
Flughafen
Flughafen Code EDDK

Position : Cologne Bonn Airport
Entfernung: 56 (mi)

Metar:
EDDK 300350Z AUTO 34005KT CAVOK 07/03 Q1025 NOSIG

Zeit: 2023-05-30 05:50 CEST